sensor_id;sensor_type;location;lat;lon;timestamp;P1;durP1;ratioP1;P2;durP2;ratioP2
62268;SDS011;56517;51.634;5.566;2022-11-03T00:00:17;20.80;;;5.25;;
62268;SDS011;56517;51.634;5.566;2022-11-03T00:05:36;10.05;;;5.75;;
62268;SDS011;56517;51.634;5.566;2022-11-03T00:11:01;11.77;;;5.75;;
62268;SDS011;56517;51.634;5.566;2022-11-03T00:16:20;9.25;;;5.05;;
62268;SDS011;56517;51.634;5.566;2022-11-03T00:21:40;12.07;;;5.35;;
62268;SDS011;56517;51.634;5.566;2022-11-03T00:27:00;14.98;;;6.15;;
62268;SDS011;56517;51.634;5.566;2022-11-03T00:32:19;15.18;;;5.60;;
62268;SDS011;56517;51.634;5.566;2022-11-03T00:37:38;18.95;;;6.18;;
62268;SDS011;56517;51.634;5.566;2022-11-03T00:42:59;13.13;;;6.03;;
62268;SDS011;56517;51.634;5.566;2022-11-03T00:48:18;14.25;;;4.93;;
62268;SDS011;56517;51.634;5.566;2022-11-03T00:53:39;13.03;;;5.40;;
62268;SDS011;56517;51.634;5.566;2022-11-03T00:59:00;17.27;;;6.20;;
62268;SDS011;56517;51.634;5.566;2022-11-03T01:04:19;19.10;;;6.00;;
62268;SDS011;56517;51.634;5.566;2022-11-03T01:09:39;16.45;;;6.07;;
62268;SDS011;56517;51.634;5.566;2022-11-03T01:15:00;18.58;;;5.30;;
62268;SDS011;56517;51.634;5.566;2022-11-03T01:25:38;12.80;;;5.35;;
62268;SDS011;56517;51.634;5.566;2022-11-03T01:31:02;12.00;;;5.50;;
62268;SDS011;56517;51.634;5.566;2022-11-03T01:36:21;11.85;;;5.30;;
62268;SDS011;56517;51.634;5.566;2022-11-03T01:41:41;10.32;;;5.93;;
62268;SDS011;56517;51.634;5.566;2022-11-03T01:47:08;14.70;;;5.07;;
62268;SDS011;56517;51.634;5.566;2022-11-03T01:52:31;9.85;;;5.88;;
62268;SDS011;56517;51.634;5.566;2022-11-03T01:57:52;11.80;;;5.63;;
62268;SDS011;56517;51.634;5.566;2022-11-03T02:03:14;12.63;;;5.53;;
62268;SDS011;56517;51.634;5.566;2022-11-03T02:08:35;14.05;;;5.68;;
62268;SDS011;56517;51.634;5.566;2022-11-03T02:13:56;13.57;;;5.75;;
62268;SDS011;56517;51.634;5.566;2022-11-03T02:19:18;9.60;;;5.20;;
62268;SDS011;56517;51.634;5.566;2022-11-03T02:24:41;10.80;;;5.18;;
62268;SDS011;56517;51.634;5.566;2022-11-03T02:30:05;11.07;;;5.32;;
62268;SDS011;56517;51.634;5.566;2022-11-03T02:35:26;14.43;;;5.32;;
62268;SDS011;56517;51.634;5.566;2022-11-03T02:40:47;14.13;;;5.25;;
62268;SDS011;56517;51.634;5.566;2022-11-03T02:46:09;10.93;;;4.95;;
62268;SDS011;56517;51.634;5.566;2022-11-03T02:51:29;12.13;;;5.82;;
62268;SDS011;56517;51.634;5.566;2022-11-03T02:56:49;17.73;;;5.30;;
62268;SDS011;56517;51.634;5.566;2022-11-03T03:02:12;14.30;;;5.28;;
62268;SDS011;56517;51.634;5.566;2022-11-03T03:07:35;15.73;;;5.22;;
62268;SDS011;56517;51.634;5.566;2022-11-03T03:12:55;8.35;;;5.10;;
62268;SDS011;56517;51.634;5.566;2022-11-03T03:18:19;11.10;;;4.95;;
62268;SDS011;56517;51.634;5.566;2022-11-03T03:23:40;16.02;;;5.95;;
62268;SDS011;56517;51.634;5.566;2022-11-03T03:29:02;14.30;;;6.38;;
62268;SDS011;56517;51.634;5.566;2022-11-03T03:39:42;12.80;;;5.30;;
62268;SDS011;56517;51.634;5.566;2022-11-03T03:45:04;12.05;;;5.30;;
62268;SDS011;56517;51.634;5.566;2022-11-03T03:50:25;10.90;;;5.10;;
62268;SDS011;56517;51.634;5.566;2022-11-03T03:55:49;10.43;;;5.72;;
62268;SDS011;56517;51.634;5.566;2022-11-03T04:01:09;12.82;;;5.35;;
62268;SDS011;56517;51.634;5.566;2022-11-03T04:06:28;14.70;;;5.78;;
62268;SDS011;56517;51.634;5.566;2022-11-03T04:11:49;15.85;;;5.63;;
62268;SDS011;56517;51.634;5.566;2022-11-03T04:17:11;15.57;;;5.55;;
62268;SDS011;56517;51.634;5.566;2022-11-03T04:22:34;11.52;;;5.65;;
62268;SDS011;56517;51.634;5.566;2022-11-03T04:27:54;10.25;;;5.18;;
62268;SDS011;56517;51.634;5.566;2022-11-03T04:33:15;12.60;;;5.50;;
62268;SDS011;56517;51.634;5.566;2022-11-03T04:38:34;13.77;;;5.43;;
62268;SDS011;56517;51.634;5.566;2022-11-03T04:43:56;17.70;;;5.38;;
62268;SDS011;56517;51.634;5.566;2022-11-03T04:49:17;15.48;;;5.40;;
62268;SDS011;56517;51.634;5.566;2022-11-03T04:54:38;10.32;;;4.93;;
62268;SDS011;56517;51.634;5.566;2022-11-03T04:59:59;13.02;;;5.55;;
62268;SDS011;56517;51.634;5.566;2022-11-03T05:05:19;12.38;;;5.32;;
62268;SDS011;56517;51.634;5.566;2022-11-03T05:10:38;16.48;;;5.43;;
62268;SDS011;56517;51.634;5.566;2022-11-03T05:16:00;13.50;;;4.72;;
62268;SDS011;56517;51.634;5.566;2022-11-03T05:21:20;11.30;;;5.15;;
62268;SDS011;56517;51.634;5.566;2022-11-03T05:26:40;12.33;;;5.30;;
62268;SDS011;56517;51.634;5.566;2022-11-03T05:32:01;14.50;;;4.68;;
62268;SDS011;56517;51.634;5.566;2022-11-03T05:37:24;9.13;;;4.70;;
62268;SDS011;56517;51.634;5.566;2022-11-03T05:42:44;14.02;;;5.03;;
62268;SDS011;56517;51.634;5.566;2022-11-03T05:48:10;7.00;;;4.73;;
62268;SDS011;56517;51.634;5.566;2022-11-03T05:53:31;10.63;;;5.05;;
62268;SDS011;56517;51.634;5.566;2022-11-03T05:58:52;17.35;;;5.65;;
62268;SDS011;56517;51.634;5.566;2022-11-03T06:04:17;15.85;;;5.20;;
62268;SDS011;56517;51.634;5.566;2022-11-03T06:09:37;12.55;;;5.90;;
62268;SDS011;56517;51.634;5.566;2022-11-03T06:14:56;10.07;;;5.35;;
62268;SDS011;56517;51.634;5.566;2022-11-03T06:20:17;8.88;;;5.05;;
62268;SDS011;56517;51.634;5.566;2022-11-03T06:25:38;13.30;;;4.97;;
62268;SDS011;56517;51.634;5.566;2022-11-03T06:30:57;17.50;;;5.35;;
62268;SDS011;56517;51.634;5.566;2022-11-03T06:36:18;9.25;;;5.18;;
62268;SDS011;56517;51.634;5.566;2022-11-03T06:41:38;14.95;;;5.43;;
62268;SDS011;56517;51.634;5.566;2022-11-03T06:46:57;14.85;;;6.22;;
62268;SDS011;56517;51.634;5.566;2022-11-03T06:52:21;19.25;;;6.70;;
62268;SDS011;56517;51.634;5.566;2022-11-03T06:57:42;10.40;;;5.25;;
62268;SDS011;56517;51.634;5.566;2022-11-03T07:03:04;17.60;;;5.57;;
62268;SDS011;56517;51.634;5.566;2022-11-03T07:08:27;28.95;;;6.60;;
62268;SDS011;56517;51.634;5.566;2022-11-03T07:13:47;13.32;;;5.32;;
62268;SDS011;56517;51.634;5.566;2022-11-03T07:19:09;18.17;;;6.10;;
62268;SDS011;56517;51.634;5.566;2022-11-03T07:24:30;13.38;;;6.22;;
62268;SDS011;56517;51.634;5.566;2022-11-03T07:29:52;13.13;;;5.20;;
62268;SDS011;56517;51.634;5.566;2022-11-03T07:40:32;16.55;;;5.30;;
62268;SDS011;56517;51.634;5.566;2022-11-03T07:45:52;11.77;;;5.38;;
62268;SDS011;56517;51.634;5.566;2022-11-03T07:51:14;15.27;;;5.32;;
62268;SDS011;56517;51.634;5.566;2022-11-03T07:56:37;18.17;;;5.72;;
62268;SDS011;56517;51.634;5.566;2022-11-03T08:01:57;14.15;;;5.82;;
62268;SDS011;56517;51.634;5.566;2022-11-03T08:07:17;12.38;;;5.38;;
62268;SDS011;56517;51.634;5.566;2022-11-03T08:12:38;18.30;;;5.55;;
62268;SDS011;56517;51.634;5.566;2022-11-03T08:17:57;12.25;;;6.50;;
62268;SDS011;56517;51.634;5.566;2022-11-03T08:23:16;14.77;;;5.28;;
62268;SDS011;56517;51.634;5.566;2022-11-03T08:28:36;10.00;;;4.60;;
62268;SDS011;56517;51.634;5.566;2022-11-03T08:33:55;32.17;;;5.90;;
62268;SDS011;56517;51.634;5.566;2022-11-03T08:39:15;12.65;;;5.85;;
62268;SDS011;56517;51.634;5.566;2022-11-03T08:44:35;13.77;;;5.82;;
62268;SDS011;56517;51.634;5.566;2022-11-03T08:55:14;12.48;;;5.20;;
62268;SDS011;56517;51.634;5.566;2022-11-03T09:00:34;17.42;;;5.97;;
62268;SDS011;56517;51.634;5.566;2022-11-03T09:05:54;17.73;;;5.85;;
62268;SDS011;56517;51.634;5.566;2022-11-03T09:11:13;13.32;;;5.43;;
62268;SDS011;56517;51.634;5.566;2022-11-03T09:16:33;12.55;;;5.05;;
62268;SDS011;56517;51.634;5.566;2022-11-03T09:21:52;12.77;;;4.90;;
62268;SDS011;56517;51.634;5.566;2022-11-03T09:27:11;12.88;;;5.18;;
62268;SDS011;56517;51.634;5.566;2022-11-03T09:32:32;10.70;;;4.95;;
62268;SDS011;56517;51.634;5.566;2022-11-03T09:37:51;12.05;;;5.63;;
62268;SDS011;56517;51.634;5.566;2022-11-03T09:43:10;12.95;;;4.82;;
62268;SDS011;56517;51.634;5.566;2022-11-03T09:48:30;12.27;;;4.65;;
62268;SDS011;56517;51.634;5.566;2022-11-03T09:53:49;11.07;;;4.88;;
62268;SDS011;56517;51.634;5.566;2022-11-03T09:59:11;9.50;;;4.65;;
62268;SDS011;56517;51.634;5.566;2022-11-03T10:04:33;13.43;;;4.97;;
62268;SDS011;56517;51.634;5.566;2022-11-03T10:15:14;8.15;;;4.68;;
62268;SDS011;56517;51.634;5.566;2022-11-03T10:20:35;13.52;;;5.38;;
62268;SDS011;56517;51.634;5.566;2022-11-03T10:25:56;11.63;;;5.05;;
62268;SDS011;56517;51.634;5.566;2022-11-03T10:31:18;9.40;;;4.43;;
62268;SDS011;56517;51.634;5.566;2022-11-03T10:36:39;12.00;;;5.05;;
62268;SDS011;56517;51.634;5.566;2022-11-03T10:47:24;10.55;;;5.70;;
62268;SDS011;56517;51.634;5.566;2022-11-03T10:52:45;9.13;;;4.75;;
62268;SDS011;56517;51.634;5.566;2022-11-03T10:58:05;7.85;;;4.22;;
62268;SDS011;56517;51.634;5.566;2022-11-03T11:03:24;9.93;;;4.20;;
62268;SDS011;56517;51.634;5.566;2022-11-03T11:08:44;8.82;;;4.25;;
62268;SDS011;56517;51.634;5.566;2022-11-03T11:14:19;7.93;;;3.95;;
62268;SDS011;56517;51.634;5.566;2022-11-03T11:25:21;9.05;;;4.53;;
62268;SDS011;56517;51.634;5.566;2022-11-03T11:31:00;11.07;;;4.07;;
62268;SDS011;56517;51.634;5.566;2022-11-03T11:36:20;7.10;;;4.32;;
62268;SDS011;56517;51.634;5.566;2022-11-03T11:47:00;7.60;;;4.25;;
62268;SDS011;56517;51.634;5.566;2022-11-03T11:52:19;15.25;;;4.47;;
62268;SDS011;56517;51.634;5.566;2022-11-03T11:57:38;7.63;;;4.25;;
62268;SDS011;56517;51.634;5.566;2022-11-03T12:02:59;9.10;;;4.07;;
62268;SDS011;56517;51.634;5.566;2022-11-03T12:08:19;9.18;;;3.70;;
62268;SDS011;56517;51.634;5.566;2022-11-03T12:13:43;11.63;;;3.90;;
62268;SDS011;56517;51.634;5.566;2022-11-03T12:24:49;11.52;;;4.75;;
62268;SDS011;56517;51.634;5.566;2022-11-03T12:30:12;9.60;;;4.68;;
62268;SDS011;56517;51.634;5.566;2022-11-03T12:35:32;7.30;;;4.15;;
62268;SDS011;56517;51.634;5.566;2022-11-03T12:40:52;7.13;;;3.97;;
62268;SDS011;56517;51.634;5.566;2022-11-03T12:46:11;10.05;;;5.32;;
62268;SDS011;56517;51.634;5.566;2022-11-03T12:51:30;11.75;;;3.90;;
62268;SDS011;56517;51.634;5.566;2022-11-03T12:56:51;10.50;;;4.03;;
62268;SDS011;56517;51.634;5.566;2022-11-03T13:07:29;8.45;;;4.38;;
62268;SDS011;56517;51.634;5.566;2022-11-03T13:12:50;6.38;;;3.97;;
62268;SDS011;56517;51.634;5.566;2022-11-03T13:18:09;10.13;;;4.28;;
62268;SDS011;56517;51.634;5.566;2022-11-03T13:23:28;7.88;;;4.63;;
62268;SDS011;56517;51.634;5.566;2022-11-03T13:28:48;11.38;;;5.00;;
62268;SDS011;56517;51.634;5.566;2022-11-03T13:34:07;9.20;;;4.30;;
62268;SDS011;56517;51.634;5.566;2022-11-03T13:39:27;8.02;;;4.28;;
62268;SDS011;56517;51.634;5.566;2022-11-03T13:44:47;12.25;;;4.22;;
62268;SDS011;56517;51.634;5.566;2022-11-03T13:55:25;7.78;;;4.28;;
62268;SDS011;56517;51.634;5.566;2022-11-03T14:00:46;8.10;;;4.72;;
62268;SDS011;56517;51.634;5.566;2022-11-03T14:06:05;8.25;;;4.75;;
62268;SDS011;56517;51.634;5.566;2022-11-03T14:11:24;6.87;;;4.03;;
62268;SDS011;56517;51.634;5.566;2022-11-03T14:16:45;7.70;;;4.28;;
62268;SDS011;56517;51.634;5.566;2022-11-03T14:27:23;8.77;;;4.88;;
62268;SDS011;56517;51.634;5.566;2022-11-03T14:32:44;9.67;;;4.63;;
62268;SDS011;56517;51.634;5.566;2022-11-03T14:43:23;9.63;;;5.45;;
62268;SDS011;56517;51.634;5.566;2022-11-03T14:48:43;8.85;;;5.03;;
62268;SDS011;56517;51.634;5.566;2022-11-03T14:54:02;10.15;;;5.20;;
62268;SDS011;56517;51.634;5.566;2022-11-03T14:59:22;9.95;;;4.95;;
62268;SDS011;56517;51.634;5.566;2022-11-03T15:04:43;8.53;;;5.27;;
62268;SDS011;56517;51.634;5.566;2022-11-03T15:10:02;9.95;;;5.50;;
62268;SDS011;56517;51.634;5.566;2022-11-03T15:15:21;8.10;;;5.18;;
62268;SDS011;56517;51.634;5.566;2022-11-03T15:20:42;9.02;;;4.60;;
62268;SDS011;56517;51.634;5.566;2022-11-03T15:26:01;10.40;;;6.15;;
62268;SDS011;56517;51.634;5.566;2022-11-03T15:31:20;9.48;;;4.93;;
62268;SDS011;56517;51.634;5.566;2022-11-03T15:36:41;8.85;;;5.07;;
62268;SDS011;56517;51.634;5.566;2022-11-03T15:42:00;7.97;;;5.07;;
62268;SDS011;56517;51.634;5.566;2022-11-03T15:47:19;12.82;;;5.97;;
62268;SDS011;56517;51.634;5.566;2022-11-03T15:52:39;10.50;;;6.18;;
62268;SDS011;56517;51.634;5.566;2022-11-03T15:57:58;7.25;;;4.80;;
62268;SDS011;56517;51.634;5.566;2022-11-03T16:03:18;16.40;;;6.10;;
62268;SDS011;56517;51.634;5.566;2022-11-03T16:08:38;7.43;;;5.40;;
62268;SDS011;56517;51.634;5.566;2022-11-03T16:13:57;10.95;;;6.50;;
62268;SDS011;56517;51.634;5.566;2022-11-03T16:19:17;13.18;;;7.00;;
62268;SDS011;56517;51.634;5.566;2022-11-03T16:24:37;12.80;;;7.20;;
62268;SDS011;56517;51.634;5.566;2022-11-03T16:29:56;14.60;;;7.93;;
62268;SDS011;56517;51.634;5.566;2022-11-03T16:35:15;13.98;;;7.68;;
62268;SDS011;56517;51.634;5.566;2022-11-03T16:40:36;13.43;;;7.20;;
62268;SDS011;56517;51.634;5.566;2022-11-03T16:45:56;14.48;;;6.53;;
62268;SDS011;56517;51.634;5.566;2022-11-03T16:51:16;14.02;;;7.72;;
62268;SDS011;56517;51.634;5.566;2022-11-03T16:56:36;11.07;;;8.88;;
62268;SDS011;56517;51.634;5.566;2022-11-03T17:01:55;11.55;;;7.10;;
62268;SDS011;56517;51.634;5.566;2022-11-03T17:07:15;12.77;;;8.27;;
62268;SDS011;56517;51.634;5.566;2022-11-03T17:12:35;12.88;;;7.10;;
62268;SDS011;56517;51.634;5.566;2022-11-03T17:17:54;14.18;;;7.97;;
62268;SDS011;56517;51.634;5.566;2022-11-03T17:23:13;16.17;;;8.35;;
62268;SDS011;56517;51.634;5.566;2022-11-03T17:28:34;14.68;;;7.38;;
62268;SDS011;56517;51.634;5.566;2022-11-03T17:33:53;12.57;;;7.35;;
62268;SDS011;56517;51.634;5.566;2022-11-03T17:39:13;10.60;;;7.85;;
62268;SDS011;56517;51.634;5.566;2022-11-03T17:44:34;12.50;;;7.95;;
62268;SDS011;56517;51.634;5.566;2022-11-03T17:49:53;10.63;;;6.60;;
62268;SDS011;56517;51.634;5.566;2022-11-03T17:55:15;12.20;;;7.30;;
62268;SDS011;56517;51.634;5.566;2022-11-03T18:00:36;14.90;;;7.78;;
62268;SDS011;56517;51.634;5.566;2022-11-03T18:05:55;9.50;;;6.93;;
62268;SDS011;56517;51.634;5.566;2022-11-03T18:11:15;11.13;;;8.07;;
62268;SDS011;56517;51.634;5.566;2022-11-03T18:16:37;13.88;;;9.10;;
62268;SDS011;56517;51.634;5.566;2022-11-03T18:21:57;13.13;;;8.30;;
62268;SDS011;56517;51.634;5.566;2022-11-03T18:27:16;13.27;;;8.48;;
62268;SDS011;56517;51.634;5.566;2022-11-03T18:32:37;12.85;;;8.35;;
62268;SDS011;56517;51.634;5.566;2022-11-03T18:37:57;12.68;;;7.45;;
62268;SDS011;56517;51.634;5.566;2022-11-03T18:43:17;11.27;;;8.65;;
62268;SDS011;56517;51.634;5.566;2022-11-03T18:48:38;11.70;;;8.15;;
62268;SDS011;56517;51.634;5.566;2022-11-03T18:53:57;11.98;;;8.65;;
62268;SDS011;56517;51.634;5.566;2022-11-03T18:59:18;12.68;;;8.02;;
62268;SDS011;56517;51.634;5.566;2022-11-03T19:04:39;11.60;;;7.97;;
62268;SDS011;56517;51.634;5.566;2022-11-03T19:09:58;11.48;;;8.35;;
62268;SDS011;56517;51.634;5.566;2022-11-03T19:15:19;12.57;;;8.20;;
62268;SDS011;56517;51.634;5.566;2022-11-03T19:20:40;12.38;;;8.13;;
62268;SDS011;56517;51.634;5.566;2022-11-03T19:25:59;12.45;;;7.15;;
62268;SDS011;56517;51.634;5.566;2022-11-03T19:31:19;12.80;;;8.77;;
62268;SDS011;56517;51.634;5.566;2022-11-03T19:36:41;11.75;;;8.15;;
62268;SDS011;56517;51.634;5.566;2022-11-03T19:42:00;9.77;;;7.80;;
62268;SDS011;56517;51.634;5.566;2022-11-03T19:47:20;12.33;;;8.20;;
62268;SDS011;56517;51.634;5.566;2022-11-03T19:52:41;11.77;;;8.05;;
62268;SDS011;56517;51.634;5.566;2022-11-03T19:58:01;10.23;;;8.32;;
62268;SDS011;56517;51.634;5.566;2022-11-03T20:03:20;10.82;;;7.22;;
62268;SDS011;56517;51.634;5.566;2022-11-03T20:08:41;16.60;;;8.02;;
62268;SDS011;56517;51.634;5.566;2022-11-03T20:19:19;12.07;;;7.72;;
62268;SDS011;56517;51.634;5.566;2022-11-03T20:24:40;8.60;;;6.90;;
62268;SDS011;56517;51.634;5.566;2022-11-03T20:30:00;10.48;;;7.65;;
62268;SDS011;56517;51.634;5.566;2022-11-03T20:35:20;15.63;;;7.30;;
62268;SDS011;56517;51.634;5.566;2022-11-03T20:40:41;12.65;;;9.45;;
62268;SDS011;56517;51.634;5.566;2022-11-03T20:46:00;11.63;;;8.45;;
62268;SDS011;56517;51.634;5.566;2022-11-03T20:51:20;14.23;;;8.38;;
62268;SDS011;56517;51.634;5.566;2022-11-03T20:56:41;11.85;;;7.85;;
62268;SDS011;56517;51.634;5.566;2022-11-03T21:02:00;14.75;;;7.95;;
62268;SDS011;56517;51.634;5.566;2022-11-03T21:07:19;13.20;;;9.95;;
62268;SDS011;56517;51.634;5.566;2022-11-03T21:12:40;15.18;;;8.40;;
62268;SDS011;56517;51.634;5.566;2022-11-03T21:17:59;11.77;;;8.40;;
62268;SDS011;56517;51.634;5.566;2022-11-03T21:23:19;11.80;;;10.52;;
62268;SDS011;56517;51.634;5.566;2022-11-03T21:28:41;15.85;;;10.35;;
62268;SDS011;56517;51.634;5.566;2022-11-03T21:39:20;11.95;;;10.05;;
62268;SDS011;56517;51.634;5.566;2022-11-03T21:44:40;12.88;;;9.85;;
62268;SDS011;56517;51.634;5.566;2022-11-03T21:49:59;12.18;;;8.02;;
62268;SDS011;56517;51.634;5.566;2022-11-03T21:55:18;11.25;;;8.60;;
62268;SDS011;56517;51.634;5.566;2022-11-03T22:00:39;8.35;;;7.03;;
62268;SDS011;56517;51.634;5.566;2022-11-03T22:05:58;10.20;;;7.22;;
62268;SDS011;56517;51.634;5.566;2022-11-03T22:11:18;8.57;;;7.20;;
62268;SDS011;56517;51.634;5.566;2022-11-03T22:16:38;13.35;;;7.57;;
62268;SDS011;56517;51.634;5.566;2022-11-03T22:21:58;8.38;;;6.88;;
62268;SDS011;56517;51.634;5.566;2022-11-03T22:27:17;11.13;;;8.45;;
62268;SDS011;56517;51.634;5.566;2022-11-03T22:32:38;15.70;;;8.30;;
62268;SDS011;56517;51.634;5.566;2022-11-03T22:38:04;13.18;;;8.35;;
62268;SDS011;56517;51.634;5.566;2022-11-03T22:43:24;11.98;;;8.60;;
62268;SDS011;56517;51.634;5.566;2022-11-03T22:48:44;10.63;;;7.82;;
62268;SDS011;56517;51.634;5.566;2022-11-03T22:54:03;10.35;;;6.65;;
62268;SDS011;56517;51.634;5.566;2022-11-03T22:59:23;8.25;;;6.25;;
62268;SDS011;56517;51.634;5.566;2022-11-03T23:04:43;11.10;;;6.82;;
62268;SDS011;56517;51.634;5.566;2022-11-03T23:10:03;14.95;;;7.53;;
62268;SDS011;56517;51.634;5.566;2022-11-03T23:15:23;13.77;;;8.93;;
62268;SDS011;56517;51.634;5.566;2022-11-03T23:20:43;9.98;;;7.95;;
62268;SDS011;56517;51.634;5.566;2022-11-03T23:31:22;10.98;;;8.38;;
62268;SDS011;56517;51.634;5.566;2022-11-03T23:36:42;12.32;;;8.60;;
62268;SDS011;56517;51.634;5.566;2022-11-03T23:42:01;9.18;;;7.30;;
62268;SDS011;56517;51.634;5.566;2022-11-03T23:47:21;10.60;;;8.05;;
62268;SDS011;56517;51.634;5.566;2022-11-03T23:52:41;11.25;;;7.80;;
62268;SDS011;56517;51.634;5.566;2022-11-03T23:58:00;12.45;;;7.35;;
